16 Dec 2018 10:01 UTC 2018350+10:01 UTC

Overview Datums Bench Marks Data Query Site Visit Daily QC Messages Attributes

042: Nueces Delta 2

27° 53' 19" N   97° 34' 10" W
NUDE2
The Coastal Bend Bays & Estuaries Program Coastal Bend Bays and Estuaries Program

Station Information

Nueces Delta 2
Nueces Delta 2
more pictures
 
Station Name:Nueces Delta 2
DNR ID:042
Location:27° 53' 19" N, 97° 34' 10" W

Water Level Forecasts

Latest Observations

Series Metric English Marine Observed at
Water Temperature 10.7 °C 51.3 °F 51.3 °F Dec 16 03:54 CST
00h07m ago
Salinity 1.600 psu 1.600 psu 1.600 psu Dec 16 03:54 CST
00h07m ago

Maps

Nueces Delta 2
All Stations in Area
Entire Network
 

Recent Observations

Date/Time Water
Temp (°F)
Sal (psu)
Dec 16 03:00 CST 52.0 1.700
Dec 16 02:00 CST 52.5 1.800
Dec 16 01:00 CST 53.2 1.900
Dec 16 00:00 CST 54.3 2.100
Dec 15 23:00 CST 55.2 2.300
Dec 15 22:00 CST 56.3 2.600
Dec 15 21:00 CST 57.2 2.700
Dec 15 20:00 CST 58.5 2.900
Dec 15 19:00 CST 59.2 3.000
Dec 15 18:00 CST 60.4 3.300
Dec 15 17:00 CST 61.5 3.900
Dec 15 16:00 CST 60.8 3.000
Dec 15 15:00 CST 60.1 3.200
Dec 15 14:00 CST 58.5 3.300
Dec 15 13:00 CST 55.8 3.100
Dec 15 12:00 CST 52.9 3.100
Dec 15 11:00 CST 50.2 3.200
Dec 15 10:00 CST 48.0 3.500
Dec 15 09:00 CST 46.9 3.600
Dec 15 08:00 CST 47.3 3.300
Dec 15 07:00 CST 48.0 3.100
Dec 15 06:00 CST 48.6 3.100
Dec 15 05:00 CST 49.5 3.100
Dec 15 04:00 CST 50.2 3.400

Historical Data Availability